createdAt,value
2018-07-28T00:00:08.941Z,23.82
2018-07-28T00:01:19.066Z,23.88
2018-07-28T00:02:28.856Z,23.91
2018-07-28T00:03:38.402Z,23.86
2018-07-28T00:04:47.943Z,23.88
2018-07-28T00:05:57.755Z,23.79
2018-07-28T00:07:07.626Z,23.84
2018-07-28T00:08:17.693Z,23.81
2018-07-28T00:09:27.507Z,23.82
2018-07-28T00:10:37.318Z,23.82
2018-07-28T00:11:47.369Z,23.79
2018-07-28T00:12:57.494Z,23.79
2018-07-28T00:14:07.293Z,23.85
2018-07-28T00:15:16.836Z,23.79
2018-07-28T00:16:26.911Z,23.76
2018-07-28T00:17:36.981Z,23.7
2018-07-28T00:18:46.844Z,23.74
2018-07-28T00:19:56.657Z,23.69
2018-07-28T00:21:06.473Z,23.74
2018-07-28T00:22:16.538Z,23.79
2018-07-28T00:23:26.606Z,23.67
2018-07-28T00:24:36.472Z,23.71
2018-07-28T00:25:46.287Z,23.66
2018-07-28T00:26:56.100Z,23.67
2018-07-28T00:28:05.912Z,23.71
2018-07-28T00:29:15.722Z,23.66
2018-07-28T00:30:25.874Z,23.58
2018-07-28T00:31:35.685Z,23.55
2018-07-28T00:32:45.786Z,23.58
2018-07-28T00:33:55.601Z,23.51
2018-07-28T00:35:05.681Z,23.56
2018-07-28T00:36:15.812Z,23.56
2018-07-28T00:37:25.626Z,23.42
2018-07-28T00:38:35.449Z,23.47
2018-07-28T00:39:45.243Z,23.36
2018-07-28T00:40:55.039Z,23.42
2018-07-28T00:42:05.153Z,23.42
2018-07-28T00:43:14.937Z,23.42
2018-07-28T00:44:24.993Z,23.45
2018-07-28T00:45:35.084Z,23.34
2018-07-28T00:46:44.897Z,23.42
2018-07-28T00:47:55.021Z,23.39
2018-07-28T00:49:04.834Z,23.42
2018-07-28T00:50:14.892Z,23.39
2018-07-28T00:51:24.685Z,23.37
2018-07-28T00:52:34.745Z,23.39
2018-07-28T00:53:44.860Z,23.44
2018-07-28T00:54:54.390Z,23.4
2018-07-28T00:56:04.194Z,23.4
2018-07-28T00:57:14.271Z,23.49
2018-07-28T00:58:23.809Z,23.51
2018-07-28T00:59:33.398Z,23.55
2018-07-28T01:00:43.461Z,23.56
2018-07-28T01:01:53.258Z,23.56
2018-07-28T01:03:03.334Z,23.52
2018-07-28T01:04:13.124Z,23.64
2018-07-28T01:05:23.251Z,23.64
2018-07-28T01:06:33.306Z,23.59
2018-07-28T01:07:43.396Z,23.55
2018-07-28T01:08:53.208Z,23.69
2018-07-28T01:10:03.001Z,23.67
2018-07-28T01:11:13.105Z,23.56
2018-07-28T01:12:23.170Z,23.67
2018-07-28T01:13:32.972Z,23.55
2018-07-28T01:14:42.765Z,23.52
2018-07-28T01:15:52.847Z,23.52
2018-07-28T01:17:02.950Z,23.52
2018-07-28T01:18:12.780Z,23.59
2018-07-28T01:19:22.880Z,23.52
2018-07-28T01:20:32.140Z,23.64
2018-07-28T01:21:42.217Z,23.58
2018-07-28T01:22:52.057Z,23.56
2018-07-28T01:24:02.139Z,23.59
2018-07-28T01:25:11.942Z,23.58
2018-07-28T01:26:21.749Z,23.56
2018-07-28T01:27:31.556Z,23.59
2018-07-28T01:28:41.135Z,23.59
2018-07-28T01:29:50.941Z,23.58
2018-07-28T01:31:00.754Z,23.64
2018-07-28T01:32:10.843Z,23.62
2018-07-28T01:33:20.646Z,23.64
2018-07-28T01:34:30.480Z,23.58
2018-07-28T01:35:40.559Z,23.56
2018-07-28T01:36:50.407Z,23.62
2018-07-28T01:38:00.210Z,23.54
2018-07-28T01:39:10.026Z,23.63
2018-07-28T01:40:24.061Z,23.62
2018-07-28T01:41:34.150Z,23.66
2018-07-28T01:42:43.939Z,23.69
2018-07-28T01:43:53.729Z,23.54
2018-07-28T01:45:03.845Z,23.64
2018-07-28T01:46:13.705Z,23.64
2018-07-28T01:47:23.513Z,23.64
2018-07-28T01:48:33.592Z,23.64
2018-07-28T01:49:43.395Z,23.55
2018-07-28T01:50:53.479Z,23.54
2018-07-28T01:52:03.596Z,23.58
2018-07-28T01:53:13.411Z,23.62
2018-07-28T01:54:23.487Z,23.58
2018-07-28T01:55:33.294Z,23.63
2018-07-28T01:56:43.366Z,23.58
2018-07-28T01:57:53.493Z,23.71
2018-07-28T01:59:03.292Z,23.66
2018-07-28T02:00:13.085Z,23.71
2018-07-28T02:01:23.163Z,23.58
2018-07-28T02:02:32.966Z,23.59
2018-07-28T02:03:42.840Z,23.63
2018-07-28T02:04:52.912Z,23.58
2018-07-28T02:06:02.981Z,23.62
2018-07-28T02:07:12.788Z,23.55
2018-07-28T02:08:22.595Z,23.55
2018-07-28T02:09:32.724Z,23.63
2018-07-28T02:10:42.812Z,23.56
2018-07-28T02:11:52.615Z,23.54
2018-07-28T02:13:02.409Z,23.62
2018-07-28T02:14:12.475Z,23.56
2018-07-28T02:15:22.577Z,23.56
2018-07-28T02:16:32.101Z,23.56
2018-07-28T02:17:42.201Z,23.49
2018-07-28T02:18:52.302Z,23.42
2018-07-28T02:20:02.383Z,23.44
2018-07-28T02:21:12.510Z,23.44
2018-07-28T02:22:22.301Z,23.45
2018-07-28T02:23:32.376Z,23.44
2018-07-28T02:24:42.447Z,23.42
2018-07-28T02:25:52.531Z,23.37
2018-07-28T02:27:02.648Z,23.44
2018-07-28T02:28:12.461Z,23.36
2018-07-28T02:29:22.523Z,23.37
2018-07-28T02:30:32.066Z,23.32
2018-07-28T02:31:41.633Z,23.18
2018-07-28T02:32:51.792Z,23.32
2018-07-28T02:34:01.870Z,23.25
2018-07-28T02:35:11.684Z,23.16
2018-07-28T02:36:21.770Z,23.17
2018-07-28T02:37:31.600Z,23.21
2018-07-28T02:38:41.746Z,23.11
2018-07-28T02:39:51.283Z,23.13
2018-07-28T02:41:01.363Z,23.13
2018-07-28T02:42:11.441Z,23.1
2018-07-28T02:43:21.511Z,23.1
2018-07-28T02:44:31.389Z,22.99
2018-07-28T02:45:41.473Z,22.96
2018-07-28T02:46:51.332Z,23.04
2018-07-28T02:48:01.459Z,23.06
2018-07-28T02:49:11.262Z,23.01
2018-07-28T02:50:21.109Z,22.92
2018-07-28T02:51:30.641Z,22.95
2018-07-28T02:52:40.765Z,22.86
2018-07-28T02:53:50.846Z,22.93
2018-07-28T02:55:00.907Z,22.88
2018-07-28T02:56:11.072Z,22.84
2018-07-28T02:57:21.148Z,22.81
2018-07-28T02:58:31.227Z,22.84
2018-07-28T02:59:41.303Z,22.65
2018-07-28T03:03:39.821Z,22.62
2018-07-28T03:04:49.927Z,22.65
2018-07-28T03:06:00.010Z,22.61
2018-07-28T03:07:10.097Z,22.58
2018-07-28T03:08:20.178Z,22.53
2018-07-28T03:09:30.045Z,22.51
2018-07-28T03:10:39.574Z,22.55
2018-07-28T03:11:49.394Z,22.44
2018-07-28T03:12:59.219Z,22.51
2018-07-28T03:14:08.764Z,22.47
2018-07-28T03:15:18.609Z,22.51
2018-07-28T03:16:28.703Z,22.47
2018-07-28T03:17:38.268Z,22.49
2018-07-28T03:18:48.068Z,22.41
2018-07-28T03:19:58.150Z,22.38
2018-07-28T03:21:07.747Z,22.33
2018-07-28T03:22:17.575Z,22.33
2018-07-28T03:23:27.648Z,22.31
2018-07-28T03:24:37.716Z,22.33
2018-07-28T03:25:47.806Z,22.36
2018-07-28T03:26:57.918Z,22.38
2018-07-28T03:28:07.987Z,22.36
2018-07-28T03:29:17.794Z,22.4
2018-07-28T03:30:27.864Z,22.36
2018-07-28T03:31:37.673Z,22.36
2018-07-28T03:32:47.869Z,22.4
2018-07-28T03:33:57.946Z,22.38
2018-07-28T03:35:08.030Z,22.4
2018-07-28T03:36:17.818Z,22.38
2018-07-28T03:37:27.626Z,22.37
2018-07-28T03:38:36.941Z,22.23
2018-07-28T03:39:47.007Z,22.25
2018-07-28T03:40:56.810Z,22.3
2018-07-28T03:42:06.604Z,22.31
2018-07-28T03:43:16.664Z,22.23
2018-07-28T03:44:26.521Z,22.26
2018-07-28T03:45:36.597Z,22.3
2018-07-28T03:46:46.398Z,22.23
2018-07-28T03:47:56.203Z,22.18
2018-07-28T03:49:06.293Z,22.26
2018-07-28T03:50:16.544Z,22.21
2018-07-28T03:51:26.342Z,22.23
2018-07-28T03:52:35.879Z,22.15
2018-07-28T03:53:45.962Z,22.21
2018-07-28T03:54:56.025Z,22.19
2018-07-28T03:56:05.884Z,22.18
2018-07-28T03:57:15.676Z,22.19
2018-07-28T03:58:25.750Z,22.14
2018-07-28T03:59:35.542Z,22.19
2018-07-28T04:00:45.622Z,22.12
2018-07-28T04:01:55.763Z,22.21
2018-07-28T04:03:05.566Z,22.04
2018-07-28T04:04:15.524Z,22.14
2018-07-28T04:05:24.919Z,22.21
2018-07-28T04:06:34.715Z,22.14
2018-07-28T04:07:44.830Z,22.12
2018-07-28T04:08:54.905Z,22.1
2018-07-28T04:10:04.981Z,22.08
2018-07-28T04:11:15.070Z,22.1
2018-07-28T04:12:24.880Z,22.03
2018-07-28T04:13:34.727Z,22.01
2018-07-28T04:14:44.530Z,22.07
2018-07-28T04:15:54.612Z,22.04
2018-07-28T04:17:04.409Z,22.08
2018-07-28T04:18:13.937Z,22.01
2018-07-28T04:19:23.782Z,22.06
2018-07-28T04:20:33.849Z,22.06
2018-07-28T04:21:43.901Z,22.03
2018-07-28T04:22:53.689Z,22.06
2018-07-28T04:24:03.507Z,22.07
2018-07-28T04:25:13.353Z,22.14
2018-07-28T04:26:23.420Z,22.04
2018-07-28T04:27:32.957Z,22.1
2018-07-28T04:28:43.317Z,22.1
2018-07-28T04:29:53.398Z,22.1
2018-07-28T04:31:03.513Z,22.06
2018-07-28T04:32:13.321Z,22.04
2018-07-28T04:33:23.103Z,22.19
2018-07-28T04:34:33.176Z,22.14
2018-07-28T04:35:42.988Z,22.16
2018-07-28T04:36:52.558Z,22.22
2018-07-28T04:38:02.640Z,22.18
2018-07-28T04:39:11.890Z,22.25
2018-07-28T04:40:21.961Z,22.28
2018-07-28T04:41:31.763Z,22.3
2018-07-28T04:42:41.341Z,22.21
2018-07-28T04:43:51.491Z,22.3
2018-07-28T04:45:01.410Z,22.26
2018-07-28T04:46:11.215Z,22.3
2018-07-28T04:47:21.297Z,22.28
2018-07-28T04:48:31.437Z,22.25
2018-07-28T04:49:40.723Z,22.28
2018-07-28T04:50:50.257Z,22.28
2018-07-28T04:51:59.785Z,22.26
2018-07-28T04:53:09.319Z,22.19
2018-07-28T04:54:19.176Z,22.33
2018-07-28T04:55:29.249Z,22.31
2018-07-28T04:56:39.324Z,22.31
2018-07-28T04:57:49.130Z,22.36
2018-07-28T04:58:59.217Z,22.36
2018-07-28T05:00:09.332Z,22.4
2018-07-28T05:01:19.141Z,22.41
2018-07-28T05:02:28.947Z,22.36
2018-07-28T05:03:39.002Z,22.34
2018-07-28T05:04:48.547Z,22.49
2018-07-28T05:05:58.146Z,22.46
2018-07-28T05:07:08.223Z,22.46
2018-07-28T05:08:18.417Z,22.47
2018-07-28T05:09:28.223Z,22.52
2018-07-28T05:10:38.011Z,22.51
2018-07-28T05:11:48.162Z,22.52
2018-07-28T05:12:58.255Z,22.52
2018-07-28T05:14:08.060Z,22.58
2018-07-28T05:15:17.581Z,22.63
2018-07-28T05:16:27.106Z,22.59
2018-07-28T05:17:37.226Z,22.7
2018-07-28T05:18:47.292Z,22.74
2018-07-28T05:19:56.827Z,22.7
2018-07-28T05:21:06.376Z,22.68
2018-07-28T05:22:16.185Z,22.81
2018-07-28T05:23:26.329Z,22.68
2018-07-28T05:24:36.401Z,22.77
2018-07-28T05:25:46.497Z,22.88
2018-07-28T05:26:56.283Z,22.77
2018-07-28T05:28:06.091Z,22.81
2018-07-28T05:29:15.953Z,22.84
2018-07-28T05:30:26.017Z,22.8
2018-07-28T05:31:36.103Z,22.88
2018-07-28T05:32:45.927Z,22.83
2018-07-28T05:33:55.998Z,22.93
2018-07-28T05:35:05.838Z,22.98
2018-07-28T05:36:15.612Z,22.88
2018-07-28T05:37:25.422Z,22.93
2018-07-28T05:38:35.506Z,23.01
2018-07-28T05:39:45.586Z,23.02
2018-07-28T05:40:55.436Z,22.99
2018-07-28T05:42:05.235Z,22.98
2018-07-28T05:43:15.021Z,22.98
2018-07-28T05:44:25.094Z,23.08
2018-07-28T05:45:35.148Z,23.13
2018-07-28T05:46:45.276Z,23.1
2018-07-28T05:47:55.387Z,23.08
2018-07-28T05:49:05.449Z,23.11
2018-07-28T05:50:15.775Z,23.07
2018-07-28T05:51:25.960Z,23.14
2018-07-28T05:52:35.816Z,23.02
2018-07-28T05:53:45.907Z,22.99
2018-07-28T05:54:55.719Z,22.95
2018-07-28T05:56:05.258Z,23.06
2018-07-28T05:57:14.817Z,23.01
2018-07-28T05:58:24.397Z,23.01
2018-07-28T05:59:34.465Z,22.99
2018-07-28T06:00:44.262Z,23.02
2018-07-28T06:01:54.059Z,22.95
2018-07-28T06:03:04.143Z,22.99
2018-07-28T06:04:13.991Z,23.1
2018-07-28T06:05:24.046Z,23.11
2018-07-28T06:06:34.124Z,23.1
2018-07-28T06:07:44.188Z,23.08
2018-07-28T06:08:53.714Z,23.13
2018-07-28T06:10:03.823Z,23.25
2018-07-28T06:11:13.622Z,23.21
2018-07-28T06:12:23.421Z,23.25
2018-07-28T06:13:33.481Z,23.39
2018-07-28T06:14:43.531Z,23.32
2018-07-28T06:15:53.102Z,23.4
2018-07-28T06:17:03.179Z,23.42
2018-07-28T06:18:13.241Z,23.45
2018-07-28T06:19:23.307Z,23.47
2018-07-28T06:20:33.101Z,23.47
2018-07-28T06:21:42.678Z,23.55
2018-07-28T06:22:52.472Z,23.56
2018-07-28T06:24:02.545Z,23.59
2018-07-28T06:25:12.075Z,23.64
2018-07-28T06:26:21.887Z,23.58
2018-07-28T06:27:31.738Z,23.7
2018-07-28T06:28:41.808Z,23.69
2018-07-28T06:29:51.351Z,23.7
2018-07-28T06:31:01.162Z,23.71
2018-07-28T06:32:10.691Z,23.74
2018-07-28T06:33:20.561Z,23.79
2018-07-28T06:34:30.364Z,23.82
2018-07-28T06:35:40.447Z,23.84
2018-07-28T06:36:50.250Z,23.86
2018-07-28T06:38:00.065Z,23.88
2018-07-28T06:39:10.090Z,23.89
2018-07-28T06:40:20.463Z,23.94
2018-07-28T06:41:30.404Z,23.92
2018-07-28T06:42:40.466Z,23.94
2018-07-28T06:43:49.995Z,24
2018-07-28T06:44:59.579Z,24
2018-07-28T06:46:09.680Z,23.95
2018-07-28T06:47:19.862Z,24.01
2018-07-28T06:48:30.128Z,24.01
2018-07-28T06:49:40.206Z,24.13
2018-07-28T06:50:50.073Z,24.07
2018-07-28T06:52:00.140Z,24.1
2018-07-28T06:53:09.671Z,24.1
2018-07-28T06:54:19.738Z,24.11
2018-07-28T06:55:29.813Z,24.14
2018-07-28T06:56:39.657Z,24.19
2018-07-28T06:57:49.461Z,24.18
2018-07-28T06:58:59.527Z,24.24
2018-07-28T07:00:09.067Z,24.32
2018-07-28T07:01:19.138Z,24.21
2018-07-28T07:02:29.003Z,24.37
2018-07-28T07:03:38.523Z,24.36
2018-07-28T07:04:48.757Z,24.38
2018-07-28T07:05:58.799Z,24.4
2018-07-28T07:07:08.334Z,24.38
2018-07-28T07:08:18.195Z,24.44
2018-07-28T07:09:28.260Z,24.51
2018-07-28T07:10:38.067Z,24.47
2018-07-28T07:11:48.275Z,24.46
2018-07-28T07:12:58.353Z,24.59
2018-07-28T07:14:08.495Z,24.51
2018-07-28T07:15:18.032Z,24.59
2018-07-28T07:16:27.831Z,24.56
2018-07-28T07:17:37.914Z,24.62
2018-07-28T07:18:47.982Z,24.66
2018-07-28T07:19:57.830Z,24.61
2018-07-28T07:21:07.902Z,24.68
2018-07-28T07:22:17.689Z,24.66
2018-07-28T07:23:27.219Z,24.74
2018-07-28T07:24:37.329Z,24.75
2018-07-28T07:25:47.576Z,24.77
2018-07-28T07:26:57.381Z,24.86
2018-07-28T07:28:07.430Z,24.88
2018-07-28T07:29:17.491Z,24.85
2018-07-28T07:30:27.570Z,24.92
2018-07-28T07:31:42.510Z,24.89
2018-07-28T07:32:52.309Z,24.92
2018-07-28T07:34:02.126Z,24.92
2018-07-28T07:35:11.940Z,24.97
2018-07-28T07:36:22.205Z,24.93
2018-07-28T07:37:32.355Z,24.97
2018-07-28T07:38:41.607Z,25.06
2018-07-28T07:39:51.417Z,25.11
2018-07-28T07:41:01.223Z,25.09
2018-07-28T07:42:10.487Z,25.11
2018-07-28T07:43:20.811Z,25.19
2018-07-28T07:44:30.350Z,25.26
2018-07-28T07:45:40.468Z,25.3
2018-07-28T07:46:50.238Z,25.25
2018-07-28T07:48:00.321Z,25.33
2018-07-28T07:49:10.168Z,25.36
2018-07-28T07:50:19.696Z,25.39
2018-07-28T07:51:29.495Z,25.4
2018-07-28T07:52:39.305Z,25.39
2018-07-28T07:53:49.485Z,25.48
2018-07-28T07:54:59.398Z,25.49
2018-07-28T07:56:09.487Z,25.51
2018-07-28T07:57:19.561Z,25.52
2018-07-28T07:58:29.367Z,25.59
2018-07-28T07:59:38.896Z,25.51
2018-07-28T08:00:48.733Z,25.58
2018-07-28T08:01:58.824Z,25.63
2018-07-28T08:03:08.357Z,25.62
2018-07-28T08:04:18.417Z,25.76
2018-07-28T08:05:28.493Z,25.76
2018-07-28T08:06:38.465Z,25.71
2018-07-28T08:07:48.558Z,25.8
2018-07-28T08:08:58.657Z,25.85
2018-07-28T08:10:08.186Z,25.86
2018-07-28T08:11:18.272Z,25.92
2018-07-28T08:12:28.127Z,25.98
2018-07-28T08:13:37.934Z,26.03
2018-07-28T08:14:47.739Z,26.03
2018-07-28T08:15:57.545Z,26.08
2018-07-28T08:17:07.627Z,26.08
2018-07-28T08:18:17.769Z,26.13
2018-07-28T08:19:27.585Z,26.15
2018-07-28T08:20:37.682Z,26.15
2018-07-28T08:21:47.762Z,26.11
2018-07-28T08:22:57.311Z,26.16
2018-07-28T08:24:07.168Z,26.13
2018-07-28T08:25:17.234Z,26.11
2018-07-28T08:26:27.313Z,26.08
2018-07-28T08:27:37.382Z,26.08
2018-07-28T08:28:47.482Z,26.11
2018-07-28T08:29:57.614Z,26.16
2018-07-28T08:31:07.183Z,26.18
2018-07-28T08:32:17.243Z,26.34
2018-07-28T08:33:27.197Z,26.42
2018-07-28T08:34:37.209Z,26.51
2018-07-28T08:35:47.346Z,26.66
2018-07-28T08:36:57.426Z,26.83
2018-07-28T08:38:06.962Z,26.92
2018-07-28T08:39:17.036Z,27
2018-07-28T08:40:26.837Z,27.04
2018-07-28T08:41:36.971Z,27.15
2018-07-28T08:42:47.046Z,27.28
2018-07-28T08:43:56.844Z,27.34
2018-07-28T08:45:06.917Z,27.45
2018-07-28T08:46:16.997Z,27.66
2018-07-28T08:47:27.125Z,27.79
2018-07-28T08:48:36.923Z,27.78
2018-07-28T08:49:46.724Z,27.81
2018-07-28T08:50:56.531Z,27.9
2018-07-28T08:52:05.795Z,27.94
2018-07-28T08:53:15.919Z,28.01
2018-07-28T08:54:26.004Z,28.03
2018-07-28T08:55:35.980Z,28.03
2018-07-28T08:56:45.948Z,28
2018-07-28T08:57:55.485Z,28.13
2018-07-28T08:59:05.325Z,28.08
2018-07-28T09:00:15.141Z,28.19
2018-07-28T09:01:24.961Z,28.18
2018-07-28T09:02:35.042Z,28.15
2018-07-28T09:03:45.135Z,28.31
2018-07-28T09:04:54.724Z,28.31
2018-07-28T09:06:05.040Z,28.41
2018-07-28T09:07:14.744Z,28.47
2018-07-28T09:08:24.838Z,28.49
2018-07-28T09:09:34.914Z,28.5
2018-07-28T09:10:45.284Z,28.49
2018-07-28T09:11:55.445Z,28.45
2018-07-28T09:13:05.533Z,28.35
2018-07-28T09:14:15.612Z,28.22
2018-07-28T09:15:25.692Z,28.27
2018-07-28T09:16:35.546Z,28.25
2018-07-28T09:17:45.433Z,28.18
2018-07-28T09:18:55.579Z,28.23
2018-07-28T09:20:05.651Z,28.18
2018-07-28T09:21:15.189Z,28.18
2018-07-28T09:22:25.037Z,28.34
2018-07-28T09:23:35.193Z,28.52
2018-07-28T09:24:45.239Z,28.7
2018-07-28T09:25:55.044Z,28.83
2018-07-28T09:27:05.111Z,28.84
2018-07-28T09:28:14.951Z,28.93
2018-07-28T09:29:25.016Z,28.97
2018-07-28T09:30:35.218Z,28.93
2018-07-28T09:31:45.600Z,28.93
2018-07-28T09:32:55.404Z,28.97
2018-07-28T09:34:05.526Z,28.84
2018-07-28T09:35:15.616Z,28.87
2018-07-28T09:36:25.159Z,28.86
2018-07-28T09:37:35.312Z,28.78
2018-07-28T09:38:45.623Z,28.75
2018-07-28T09:39:55.732Z,28.64
2018-07-28T09:41:05.545Z,28.56
2018-07-28T09:42:15.075Z,28.53
2018-07-28T09:43:24.337Z,28.53
2018-07-28T09:44:34.418Z,28.53
2018-07-28T09:45:44.277Z,28.65
2018-07-28T09:46:54.186Z,28.65
2018-07-28T09:48:04.408Z,28.59
2018-07-28T09:49:14.219Z,28.62
2018-07-28T09:50:24.026Z,28.53
2018-07-28T09:51:34.160Z,28.52
2018-07-28T09:52:44.269Z,28.47
2018-07-28T09:53:54.080Z,28.37
2018-07-28T09:55:04.172Z,28.41
2018-07-28T09:56:13.741Z,28.46
2018-07-28T09:57:24.267Z,28.46
2018-07-28T09:58:34.085Z,28.31
2018-07-28T09:59:43.346Z,28.23
2018-07-28T10:00:53.440Z,28.08
2018-07-28T10:02:03.533Z,27.79
2018-07-28T10:03:13.195Z,27.43
2018-07-28T10:04:23.257Z,27.15
2018-07-28T10:05:33.278Z,26.74
2018-07-28T10:06:43.321Z,26.44
2018-07-28T10:07:53.120Z,26.04
2018-07-28T10:09:03.240Z,25.8
2018-07-28T10:10:13.042Z,25.61
2018-07-28T10:11:23.107Z,25.41
2018-07-28T10:12:32.887Z,25.26
2018-07-28T10:13:42.696Z,25.16
2018-07-28T10:14:52.537Z,25.15
2018-07-28T10:16:02.613Z,25
2018-07-28T10:17:12.825Z,24.92
2018-07-28T10:18:22.902Z,24.82
2018-07-28T10:19:32.710Z,24.78
2018-07-28T10:20:42.846Z,24.75
2018-07-28T10:21:52.929Z,24.63
2018-07-28T10:23:02.661Z,24.74
2018-07-28T10:24:12.950Z,24.58
2018-07-28T10:25:23.034Z,24.66
2018-07-28T10:26:32.885Z,24.5
2018-07-28T10:27:42.965Z,24.51
2018-07-28T10:28:52.774Z,24.46
2018-07-28T10:30:02.640Z,24.43
2018-07-28T10:31:12.569Z,24.37
2018-07-28T10:32:22.702Z,24.18
2018-07-28T10:33:32.789Z,24.1
2018-07-28T10:34:42.592Z,24.11
2018-07-28T10:35:52.459Z,24.06
2018-07-28T10:37:02.518Z,24.14
2018-07-28T10:38:12.406Z,24.01
2018-07-28T10:39:22.488Z,24.03
2018-07-28T10:40:32.306Z,24.06
2018-07-28T10:41:42.111Z,24.11
2018-07-28T10:42:52.178Z,24.1
2018-07-28T10:44:02.289Z,24.04
2018-07-28T10:45:12.356Z,23.96
2018-07-28T10:46:22.439Z,24.01
2018-07-28T10:47:32.519Z,24.01
2018-07-28T10:48:42.072Z,24.03
2018-07-28T10:49:52.216Z,24
2018-07-28T10:51:02.030Z,24.14
2018-07-28T10:52:11.841Z,24.09
2018-07-28T10:53:21.930Z,24.1
2018-07-28T10:54:31.979Z,24.11
2018-07-28T10:55:41.826Z,24.16
2018-07-28T10:56:51.957Z,24.21
2018-07-28T10:58:01.490Z,24.24
2018-07-28T10:59:11.557Z,24.32
2018-07-28T11:00:21.517Z,24.34
2018-07-28T11:01:35.338Z,24.41
2018-07-28T11:02:45.150Z,24.51
2018-07-28T11:03:54.942Z,24.56
2018-07-28T11:05:05.014Z,24.58
2018-07-28T11:06:14.811Z,24.61
2018-07-28T11:07:24.706Z,24.61
2018-07-28T11:08:34.240Z,24.53
2018-07-28T11:09:44.040Z,24.61
2018-07-28T11:10:53.576Z,24.61
2018-07-28T11:12:03.671Z,24.63
2018-07-28T11:13:13.281Z,24.46
2018-07-28T11:14:23.084Z,24.47
2018-07-28T11:15:33.163Z,24.46
2018-07-28T11:16:43.226Z,24.32
2018-07-28T11:17:53.289Z,24.25
2018-07-28T11:19:03.760Z,24.19
2018-07-28T11:20:14.320Z,24.21
2018-07-28T11:21:24.389Z,24.22
2018-07-28T11:22:34.268Z,24.19
2018-07-28T11:23:44.210Z,24.21
2018-07-28T11:24:53.527Z,24.16
2018-07-28T11:26:03.949Z,24.22
2018-07-28T11:27:14.017Z,24.19
2018-07-28T11:28:24.102Z,24.16
2018-07-28T11:29:33.903Z,24.11
2018-07-28T11:30:43.228Z,24.11
2018-07-28T11:31:53.531Z,24.11
2018-07-28T11:33:03.480Z,24.11
2018-07-28T11:34:13.291Z,24.21
2018-07-28T11:35:23.110Z,24.24
2018-07-28T11:36:33.253Z,24.26
2018-07-28T11:37:43.319Z,24.25
2018-07-28T11:38:53.599Z,24.19
2018-07-28T11:40:03.408Z,24.09
2018-07-28T11:41:13.481Z,24.21
2018-07-28T11:42:23.610Z,24.25
2018-07-28T11:43:33.690Z,24.18
2018-07-28T11:44:43.777Z,24.24
2018-07-28T11:45:54.001Z,24.34
2018-07-28T11:47:04.357Z,24.37
2018-07-28T11:48:14.474Z,24.46
2018-07-28T11:49:24.558Z,24.51
2018-07-28T11:50:34.091Z,24.56
2018-07-28T11:51:44.185Z,24.62
2018-07-28T11:52:53.721Z,24.69
2018-07-28T11:54:03.575Z,24.79
2018-07-28T11:55:13.394Z,24.88
2018-07-28T11:56:23.189Z,24.85
2018-07-28T11:57:32.977Z,24.88
2018-07-28T11:58:42.515Z,24.89
2018-07-28T11:59:52.635Z,24.94
2018-07-28T12:01:02.723Z,24.94
2018-07-28T12:02:12.536Z,24.94
2018-07-28T12:03:22.328Z,24.89
2018-07-28T12:04:32.399Z,24.92
2018-07-28T12:05:42.393Z,24.84
2018-07-28T12:06:52.476Z,24.77
2018-07-28T12:08:02.001Z,24.58
2018-07-28T12:09:12.075Z,24.48
2018-07-28T12:10:22.135Z,24.44
2018-07-28T12:11:32.258Z,24.36
2018-07-28T12:12:42.605Z,24.11
2018-07-28T12:13:52.422Z,24.09
2018-07-28T12:15:02.229Z,23.96
2018-07-28T12:16:11.768Z,24
2018-07-28T12:17:21.880Z,24.07
2018-07-28T12:18:31.508Z,24.01
2018-07-28T12:19:41.732Z,23.99
2018-07-28T12:20:51.804Z,24.07
2018-07-28T12:22:01.613Z,24.13
2018-07-28T12:23:11.736Z,24.22
2018-07-28T12:24:21.539Z,24.32
2018-07-28T12:25:31.350Z,24.43
2018-07-28T12:26:41.425Z,24.61
2018-07-28T12:27:51.234Z,24.66
2018-07-28T12:29:01.339Z,24.78
2018-07-28T12:30:11.154Z,24.66
2018-07-28T12:31:21.237Z,24.47
2018-07-28T12:32:31.302Z,24.4
2018-07-28T12:33:41.372Z,24.51
2018-07-28T12:34:51.265Z,24.58
2018-07-28T12:36:01.514Z,24.77
2018-07-28T12:37:11.304Z,24.86
2018-07-28T12:38:21.362Z,25.11
2018-07-28T12:39:30.895Z,25.33
2018-07-28T12:40:40.756Z,25.55
2018-07-28T12:41:50.557Z,25.51
2018-07-28T12:43:00.634Z,25.41
2018-07-28T12:44:10.708Z,25.29
2018-07-28T12:45:20.794Z,25.36
2018-07-28T12:46:30.922Z,25.46
2018-07-28T12:47:40.728Z,25.46
2018-07-28T12:48:50.805Z,25.49
2018-07-28T12:50:00.885Z,25.51
2018-07-28T12:51:10.426Z,25.52
2018-07-28T12:52:20.552Z,25.67
2018-07-28T12:53:30.622Z,25.76
2018-07-28T12:54:40.699Z,25.77
2018-07-28T12:55:50.779Z,25.96
2018-07-28T12:57:00.592Z,25.96
2018-07-28T12:58:10.177Z,25.66
2018-07-28T12:59:20.242Z,25.24
2018-07-28T13:00:30.325Z,25.06
2018-07-28T13:01:40.411Z,25.24
2018-07-28T13:02:50.489Z,24.88
2018-07-28T13:04:00.418Z,24.93
2018-07-28T13:05:09.914Z,24.86
2018-07-28T13:06:19.715Z,24.69
2018-07-28T13:07:29.518Z,24.38
2018-07-28T13:08:39.317Z,24.13
2018-07-28T13:09:49.580Z,24.24
2018-07-28T13:10:59.859Z,24.37
2018-07-28T13:12:08.845Z,24
2018-07-28T13:13:18.661Z,23.74
2018-07-28T13:14:28.193Z,23.69
2018-07-28T13:15:38.314Z,23.62
2018-07-28T13:16:48.369Z,23.74
2018-07-28T13:17:58.742Z,23.55
2018-07-28T13:19:08.726Z,23.52
2018-07-28T13:20:18.272Z,23.71
2018-07-28T13:21:28.118Z,23.95
2018-07-28T13:22:37.649Z,24.26
2018-07-28T13:23:47.952Z,24.51
2018-07-28T13:24:58.166Z,24.77
2018-07-28T13:26:08.245Z,24.94
2018-07-28T13:27:18.105Z,25.19
2018-07-28T13:28:28.197Z,25.43
2018-07-28T13:29:38.311Z,25.62
2018-07-28T13:30:48.537Z,25.76
2018-07-28T13:31:58.602Z,25.78
2018-07-28T13:33:08.199Z,25.88
2018-07-28T13:34:18.297Z,25.88
2018-07-28T13:35:28.666Z,25.92
2018-07-28T13:36:38.838Z,26.1
2018-07-28T13:37:48.651Z,26.01
2018-07-28T13:38:58.550Z,26.03
2018-07-28T13:40:08.372Z,26.03
2018-07-28T13:41:18.442Z,26.08
2018-07-28T13:42:28.530Z,26.13
2018-07-28T13:43:38.083Z,26.06
2018-07-28T13:44:48.206Z,26.04
2018-07-28T13:45:58.275Z,25.96
2018-07-28T13:47:08.336Z,25.77
2018-07-28T13:48:17.872Z,25.62
2018-07-28T13:49:27.958Z,25.63
2018-07-28T13:50:37.549Z,25.61
2018-07-28T13:51:47.621Z,25.66
2018-07-28T13:52:57.479Z,25.62
2018-07-28T13:54:07.023Z,25.62
2018-07-28T13:55:16.833Z,25.54
2018-07-28T13:56:26.974Z,25.59
2018-07-28T13:57:36.528Z,25.76
2018-07-28T13:58:46.056Z,25.73
2018-07-28T13:59:56.159Z,25.73
2018-07-28T14:01:06.241Z,25.98
2018-07-28T14:02:16.097Z,25.93
2018-07-28T14:03:26.169Z,26.06
2018-07-28T14:04:35.977Z,26.16
2018-07-28T14:05:45.531Z,26.18
2018-07-28T14:06:55.615Z,26.18
2018-07-28T14:08:05.487Z,26.24
2018-07-28T14:09:15.284Z,26.36
2018-07-28T14:10:25.356Z,26.42
2018-07-28T14:11:34.894Z,26.45
2018-07-28T14:12:44.959Z,26.78
2018-07-28T14:13:55.141Z,27.11
2018-07-28T14:15:04.878Z,27.23
2018-07-28T14:16:14.841Z,27.34
2018-07-28T14:17:24.652Z,27.38
2018-07-28T14:18:34.617Z,27.33
2018-07-28T14:19:44.623Z,27.48
2018-07-28T14:20:54.723Z,28.06
2018-07-28T14:22:04.556Z,28.41
2018-07-28T14:23:14.681Z,28.35
2018-07-28T14:24:24.519Z,28.3
2018-07-28T14:25:34.114Z,28.22
2018-07-28T14:26:44.183Z,28.03
2018-07-28T14:27:53.730Z,27.85
2018-07-28T14:29:03.811Z,27.63
2018-07-28T14:30:13.347Z,27.43
2018-07-28T14:31:23.573Z,27.33
2018-07-28T14:32:33.793Z,27.29
2018-07-28T14:33:43.651Z,27.29
2018-07-28T14:34:53.465Z,27.22
2018-07-28T14:36:03.287Z,27.26
2018-07-28T14:37:12.888Z,27.08
2018-07-28T14:38:22.435Z,26.98
2018-07-28T14:39:32.505Z,26.85
2018-07-28T14:40:42.033Z,26.85
2018-07-28T14:41:52.117Z,26.86
2018-07-28T14:43:01.707Z,26.79
2018-07-28T14:44:11.810Z,26.64
2018-07-28T14:45:21.889Z,26.66
2018-07-28T14:46:31.957Z,26.67
2018-07-28T14:47:42.017Z,26.7
2018-07-28T14:48:52.136Z,27.01
2018-07-28T14:50:02.195Z,27.26
2018-07-28T14:51:11.741Z,27.47
2018-07-28T14:52:21.820Z,28.16
2018-07-28T14:53:31.615Z,28.5
2018-07-28T14:54:41.207Z,29.28
2018-07-28T14:55:51.009Z,29.64
2018-07-28T14:57:00.831Z,29.95
2018-07-28T14:58:10.377Z,30.52
2018-07-28T14:59:20.449Z,30.86
2018-07-28T15:00:30.304Z,30.96
2018-07-28T15:01:40.401Z,30.95
2018-07-28T15:02:50.508Z,30.7
2018-07-28T15:04:00.578Z,30.74
2018-07-28T15:05:10.383Z,30.61
2018-07-28T15:06:20.563Z,30.44